createdAt,value
2022-08-05T00:04:46.946Z,285.20
2022-08-05T00:09:45.123Z,288.50
2022-08-05T00:14:44.343Z,319.80
2022-08-05T00:19:45.877Z,313.30
2022-08-05T00:24:43.758Z,338.30
2022-08-05T00:29:42.966Z,289.40
2022-08-05T00:34:55.925Z,365.70
2022-08-05T00:39:44.196Z,348.50
2022-08-05T00:44:43.768Z,287.00
2022-08-05T00:49:44.757Z,334.90
2022-08-05T00:54:38.086Z,332.60
2022-08-05T00:59:44.281Z,370.00
2022-08-05T01:04:36.420Z,369.90
2022-08-05T01:09:35.618Z,363.60
2022-08-05T01:14:34.752Z,374.30
2022-08-05T01:19:56.230Z,354.80
2022-08-05T01:24:35.277Z,351.50
2022-08-05T01:29:32.594Z,348.60
2022-08-05T01:34:32.880Z,382.10
2022-08-05T01:39:46.849Z,375.10
2022-08-05T01:44:34.430Z,363.80
2022-08-05T01:50:00.469Z,384.50
2022-08-05T01:54:28.796Z,411.20
2022-08-05T01:59:28.119Z,371.50
2022-08-05T02:04:28.377Z,381.40
2022-08-05T02:09:25.700Z,357.30
2022-08-05T02:14:26.003Z,355.70
2022-08-05T02:19:26.317Z,359.60
2022-08-05T02:24:24.626Z,371.20
2022-08-05T02:29:58.027Z,378.50
2022-08-05T02:34:22.921Z,378.10
2022-08-05T02:39:23.323Z,362.80
2022-08-05T02:44:22.552Z,384.00
2022-08-05T02:49:22.312Z,360.50
2022-08-05T02:54:36.091Z,381.70
2022-08-05T02:59:19.269Z,383.60
2022-08-05T03:04:20.464Z,340.20
2022-08-05T03:09:26.939Z,352.40
2022-08-05T03:14:17.807Z,383.60
2022-08-05T03:19:20.339Z,367.40
2022-08-05T03:24:15.260Z,386.50
2022-08-05T03:29:17.435Z,391.00
2022-08-05T03:34:14.668Z,356.40
2022-08-05T03:39:19.898Z,365.90
2022-08-05T03:44:13.228Z,379.00
2022-08-05T03:49:11.417Z,373.30
2022-08-05T03:56:01.909Z,402.70
2022-08-05T03:59:12.902Z,373.50
2022-08-05T04:04:10.807Z,364.80
2022-08-05T04:09:09.495Z,344.50
2022-08-05T04:14:08.435Z,413.00
2022-08-05T04:19:10.572Z,414.90
2022-08-05T04:24:09.145Z,390.60
2022-08-05T04:29:07.436Z,417.40
2022-08-05T04:34:31.526Z,411.30
2022-08-05T04:39:03.674Z,428.90
2022-08-05T04:44:09.289Z,396.30
2022-08-05T04:49:02.109Z,412.50
2022-08-05T04:54:01.456Z,375.60
2022-08-05T04:59:01.647Z,368.20
2022-08-05T05:03:59.809Z,370.20
2022-08-05T05:08:58.981Z,375.30
2022-08-05T05:13:59.217Z,403.00
2022-08-05T05:19:17.802Z,375.90
2022-08-05T05:24:04.016Z,400.20
2022-08-05T05:28:57.750Z,398.10
2022-08-05T05:33:59.633Z,408.90
2022-08-05T05:38:54.286Z,416.50
2022-08-05T05:43:56.918Z,435.30
2022-08-05T05:48:52.629Z,415.80
2022-08-05T05:53:57.709Z,418.50
2022-08-05T05:58:52.999Z,436.70
2022-08-05T06:04:00.537Z,425.30
2022-08-05T06:08:51.434Z,434.20
2022-08-05T06:13:53.777Z,494.50
2022-08-05T06:18:47.788Z,403.50
2022-08-05T06:23:46.955Z,395.30
2022-08-05T06:28:46.153Z,440.40
2022-08-05T06:34:07.838Z,424.60
2022-08-05T06:38:47.044Z,415.40
2022-08-05T06:43:58.221Z,442.90
2022-08-05T06:48:55.643Z,426.30
2022-08-05T06:53:42.144Z,388.40
2022-08-05T06:58:43.670Z,377.80
2022-08-05T07:03:40.524Z,399.40
2022-08-05T07:08:40.622Z,389.90
2022-08-05T07:13:58.835Z,378.00
2022-08-05T07:18:39.054Z,426.40
2022-08-05T07:23:40.525Z,399.90
2022-08-05T07:28:36.366Z,323.10
2022-08-05T07:33:37.657Z,367.40
2022-08-05T07:38:43.711Z,417.40
2022-08-05T07:43:35.058Z,391.70
2022-08-05T07:49:00.575Z,340.90
2022-08-05T07:53:36.789Z,378.30
2022-08-05T07:58:57.502Z,411.30
2022-08-05T08:03:44.249Z,360.60
2022-08-05T08:08:30.979Z,367.40
2022-08-05T08:13:29.585Z,369.20
2022-08-05T08:18:30.325Z,360.80
2022-08-05T08:24:04.003Z,423.00
2022-08-05T08:28:36.672Z,439.30
2022-08-05T08:33:27.209Z,457.20
2022-08-05T08:38:35.411Z,450.20
2022-08-05T08:45:23.475Z,449.50
2022-08-05T08:49:04.175Z,438.90
2022-08-05T08:53:23.921Z,417.80
2022-08-05T08:58:37.110Z,411.20
2022-08-05T09:03:24.777Z,416.00
2022-08-05T09:08:21.522Z,414.60
2022-08-05T09:13:19.721Z,379.10
2022-08-05T09:18:19.927Z,371.40
2022-08-05T09:23:19.756Z,422.60
2022-08-05T09:28:18.237Z,398.50
2022-08-05T09:33:17.232Z,387.70
2022-08-05T09:38:18.334Z,378.20
2022-08-05T09:43:15.138Z,378.50
2022-08-05T09:48:14.454Z,347.10
2022-08-05T09:53:22.707Z,378.20
2022-08-05T09:58:12.743Z,389.00
2022-08-05T10:03:12.063Z,359.70
2022-08-05T10:08:36.963Z,383.90
2022-08-05T10:13:10.546Z,382.90
2022-08-05T10:18:11.888Z,372.70
2022-08-05T10:23:34.742Z,390.00
2022-08-05T10:28:13.166Z,392.60
2022-08-05T10:33:09.349Z,331.50
2022-08-05T10:38:08.278Z,316.20
2022-08-05T10:43:06.046Z,312.20
2022-08-05T10:48:31.907Z,312.50
2022-08-05T10:53:05.396Z,292.00
2022-08-05T10:58:04.660Z,323.10
2022-08-05T11:03:24.893Z,302.20
2022-08-05T11:08:12.755Z,296.80
2022-08-05T11:13:01.459Z,315.50
2022-08-05T11:18:03.983Z,323.70
2022-08-05T11:23:05.740Z,366.40
2022-08-05T11:28:00.695Z,340.10
2022-08-05T11:32:58.060Z,369.80
2022-08-05T11:38:30.194Z,391.00
2022-08-05T11:42:56.543Z,366.90
2022-08-05T11:47:55.795Z,408.00
2022-08-05T11:52:57.947Z,423.30
2022-08-05T11:58:10.062Z,345.40
2022-08-05T12:02:54.326Z,323.40
2022-08-05T12:08:08.620Z,365.10
2022-08-05T12:12:59.415Z,359.60
2022-08-05T12:18:04.372Z,387.00
2022-08-05T12:22:51.925Z,366.40
2022-08-05T12:27:53.158Z,348.10
2022-08-05T12:32:50.620Z,430.40
2022-08-05T12:37:48.799Z,374.00
2022-08-05T12:42:46.930Z,337.00
2022-08-05T12:48:01.353Z,404.30
2022-08-05T12:52:45.302Z,462.20
2022-08-05T12:58:51.272Z,399.90
2022-08-05T13:02:47.326Z,323.90
2022-08-05T13:08:01.067Z,382.50
2022-08-05T13:12:57.336Z,369.30
2022-08-05T13:17:42.738Z,414.80
2022-08-05T13:22:41.724Z,333.90
2022-08-05T13:27:40.119Z,361.10
2022-08-05T13:32:42.188Z,358.00
2022-08-05T13:37:39.330Z,353.00
2022-08-05T13:42:37.622Z,376.90
2022-08-05T13:48:08.804Z,388.00
2022-08-05T13:52:37.129Z,410.50
2022-08-05T13:57:49.033Z,435.60
2022-08-05T14:02:34.674Z,402.80
2022-08-05T14:07:59.964Z,404.30
2022-08-05T14:12:33.120Z,379.30
2022-08-05T14:17:32.739Z,390.80
2022-08-05T14:22:34.852Z,367.80
2022-08-05T14:27:32.975Z,373.30
2022-08-05T14:32:30.535Z,372.50
2022-08-05T14:37:42.218Z,419.40
2022-08-05T14:42:31.055Z,419.40
2022-08-05T14:48:04.007Z,423.70
2022-08-05T14:52:51.759Z,401.30
2022-08-05T14:57:53.907Z,368.10
2022-08-05T15:02:25.827Z,392.60
2022-08-05T15:08:06.315Z,398.40
2022-08-05T15:12:23.970Z,380.50
2022-08-05T15:17:47.132Z,373.60
2022-08-05T15:22:22.647Z,399.20
2022-08-05T15:27:25.537Z,410.00
2022-08-05T15:32:21.937Z,361.50
2022-08-05T15:38:09.258Z,365.30
2022-08-05T15:42:50.407Z,414.10
2022-08-05T15:47:19.330Z,381.00
2022-08-05T15:52:29.585Z,389.70
2022-08-05T15:57:18.733Z,413.60
2022-08-05T16:02:19.860Z,412.00
2022-08-05T16:07:15.311Z,367.80
2022-08-05T16:12:15.571Z,479.00
2022-08-05T16:17:15.900Z,410.60
2022-08-05T16:22:15.368Z,485.10
2022-08-05T16:27:16.106Z,438.20
2022-08-05T16:32:11.683Z,404.70
2022-08-05T16:38:02.738Z,422.80
2022-08-05T16:42:15.413Z,421.90
2022-08-05T16:47:29.098Z,394.40
2022-08-05T16:52:08.570Z,383.10
2022-08-05T16:57:22.217Z,452.00
2022-08-05T17:02:07.246Z,443.40
2022-08-05T17:07:11.346Z,467.50
2022-08-05T17:12:05.533Z,446.10
2022-08-05T17:17:05.662Z,400.20
2022-08-05T17:22:04.000Z,425.90
2022-08-05T17:27:05.327Z,420.30
2022-08-05T17:32:03.473Z,404.40
2022-08-05T17:37:02.722Z,427.90
2022-08-05T17:42:17.907Z,366.10
2022-08-05T17:47:01.138Z,374.40
2022-08-05T17:51:59.423Z,431.50
2022-08-05T17:56:58.721Z,352.60
2022-08-05T18:01:57.865Z,323.20
2022-08-05T18:06:58.990Z,355.40
2022-08-05T18:11:57.329Z,328.00
2022-08-05T18:16:55.604Z,362.80
2022-08-05T18:22:08.610Z,262.30
2022-08-05T18:26:54.143Z,297.50
2022-08-05T18:31:53.294Z,297.00
2022-08-05T18:36:52.429Z,263.30
2022-08-05T18:41:59.193Z,303.10
2022-08-05T18:46:51.054Z,337.50
2022-08-05T18:52:04.929Z,371.20
2022-08-05T18:56:51.248Z,278.90
2022-08-05T19:01:58.203Z,311.40
2022-08-05T19:06:48.129Z,301.20
2022-08-05T19:11:59.315Z,272.20
2022-08-05T19:16:47.023Z,283.20
2022-08-05T19:21:45.548Z,359.30
2022-08-05T19:26:54.702Z,273.30
2022-08-05T19:31:51.166Z,365.40
2022-08-05T19:36:43.501Z,307.90
2022-08-05T19:42:06.330Z,314.30
2022-08-05T19:46:43.690Z,345.20
2022-08-05T19:52:08.351Z,285.60
2022-08-05T19:56:41.321Z,328.10
2022-08-05T20:01:39.596Z,281.10
2022-08-05T20:06:45.872Z,299.80
2022-08-05T20:11:38.046Z,309.00
2022-08-05T20:16:37.279Z,329.00
2022-08-05T20:21:38.417Z,301.40
2022-08-05T20:26:35.535Z,308.80
2022-08-05T20:31:42.908Z,349.00
2022-08-05T20:36:35.009Z,331.90
2022-08-05T20:41:44.549Z,382.10
2022-08-05T20:46:33.621Z,372.20
2022-08-05T20:51:32.028Z,366.70
2022-08-05T20:56:35.487Z,392.90
2022-08-05T21:01:37.591Z,365.20
2022-08-05T21:06:30.326Z,376.20
2022-08-05T21:12:07.034Z,429.30
2022-08-05T21:16:30.040Z,396.70
2022-08-05T21:21:26.868Z,430.80
2022-08-05T21:26:26.365Z,462.20
2022-08-05T21:31:26.200Z,539.90
2022-08-05T21:36:27.525Z,521.10
2022-08-05T21:41:23.510Z,492.90
2022-08-05T21:46:23.930Z,512.00
2022-08-05T21:52:16.257Z,509.10
2022-08-05T21:56:21.326Z,502.90
2022-08-05T22:01:24.913Z,474.00
2022-08-05T22:06:22.388Z,503.00
2022-08-05T22:11:19.978Z,477.70
2022-08-05T22:16:39.527Z,528.60
2022-08-05T22:21:19.636Z,515.90
2022-08-05T22:26:17.766Z,474.90
2022-08-05T22:31:17.010Z,470.60
2022-08-05T22:36:18.268Z,442.40
2022-08-05T22:41:15.579Z,466.00
2022-08-05T22:46:23.550Z,478.00
2022-08-05T22:51:15.944Z,481.00
2022-08-05T22:56:12.324Z,497.70
2022-08-05T23:01:12.496Z,535.30
2022-08-05T23:06:10.766Z,551.70
2022-08-05T23:11:09.942Z,502.10
2022-08-05T23:16:08.221Z,509.30
2022-08-05T23:21:10.181Z,497.10
2022-08-05T23:26:07.698Z,497.60
2022-08-05T23:31:17.129Z,552.60
2022-08-05T23:36:06.163Z,501.10
2022-08-05T23:41:05.440Z,534.90
2022-08-05T23:46:20.633Z,549.50
2022-08-05T23:51:03.987Z,496.60
2022-08-05T23:56:05.151Z,528.40
